createdAt,value
2019-01-15T00:00:33.222Z,34.98
2019-01-15T00:01:42.408Z,34.98
2019-01-15T00:02:51.123Z,35.08
2019-01-15T00:04:00.600Z,35.08
2019-01-15T00:05:10.040Z,35.17
2019-01-15T00:06:19.506Z,35.17
2019-01-15T00:07:28.937Z,35.08
2019-01-15T00:08:38.123Z,35.17
2019-01-15T00:09:47.551Z,35.17
2019-01-15T00:10:57.011Z,35.17
2019-01-15T00:12:10.366Z,35.08
2019-01-15T00:13:19.816Z,35.08
2019-01-15T00:14:29.016Z,35.17
2019-01-15T00:15:38.812Z,34.88
2019-01-15T00:16:47.744Z,35.17
2019-01-15T00:17:57.680Z,35.27
2019-01-15T00:19:07.118Z,35.27
2019-01-15T00:20:16.306Z,34.88
2019-01-15T00:21:25.738Z,34.78
2019-01-15T00:22:34.933Z,34.69
2019-01-15T00:23:44.112Z,34.88
2019-01-15T00:24:53.303Z,34.69
2019-01-15T00:26:02.734Z,34.69
2019-01-15T00:27:12.164Z,34.59
2019-01-15T00:28:21.590Z,34.48
2019-01-15T00:29:30.282Z,34.48
2019-01-15T00:30:39.714Z,34.5
2019-01-15T00:31:49.421Z,34.77
2019-01-15T00:32:59.100Z,34.58
2019-01-15T00:34:08.039Z,34.58
2019-01-15T00:35:17.001Z,34.58
2019-01-15T00:36:26.701Z,34.48
2019-01-15T00:37:35.883Z,34.38
2019-01-15T00:38:45.101Z,34.48
2019-01-15T00:39:54.267Z,34.48
2019-01-15T00:41:03.471Z,34.48
2019-01-15T00:42:17.917Z,34.48
2019-01-15T00:43:27.163Z,34.58
2019-01-15T00:44:36.406Z,34.48
2019-01-15T00:45:46.087Z,34.38
2019-01-15T00:46:55.772Z,34.29
2019-01-15T00:48:04.981Z,34.48
2019-01-15T00:49:14.687Z,34.48
2019-01-15T00:50:23.874Z,34.38
2019-01-15T00:51:33.297Z,34.38
2019-01-15T00:52:42.501Z,34.48
2019-01-15T00:53:51.475Z,35.06
2019-01-15T00:55:00.423Z,34.48
2019-01-15T00:56:09.361Z,34.48
2019-01-15T00:57:18.314Z,34.19
2019-01-15T00:58:27.758Z,34.19
2019-01-15T00:59:36.681Z,34.19
2019-01-15T01:00:45.387Z,34.67
2019-01-15T01:01:54.570Z,34.58
2019-01-15T01:03:04.012Z,34.29
2019-01-15T01:04:13.198Z,34.67
2019-01-15T01:05:22.155Z,34.67
2019-01-15T01:06:31.876Z,34.67
2019-01-15T01:07:41.349Z,34.48
2019-01-15T01:08:50.538Z,34.58
2019-01-15T01:10:00.052Z,34.48
2019-01-15T01:11:09.303Z,34.58
2019-01-15T01:12:24.636Z,34.58
2019-01-15T01:13:33.815Z,34.58
2019-01-15T01:14:43.011Z,34.67
2019-01-15T01:15:52.454Z,34.58
2019-01-15T01:17:01.887Z,34.19
2019-01-15T01:18:11.573Z,34.19
2019-01-15T01:19:20.806Z,34.58
2019-01-15T01:20:29.490Z,34.37
2019-01-15T01:21:40.057Z,34.27
2019-01-15T01:22:49.274Z,34.37
2019-01-15T01:23:58.713Z,34.46
2019-01-15T01:25:07.917Z,34.48
2019-01-15T01:26:17.424Z,34.37
2019-01-15T01:27:27.097Z,34.17
2019-01-15T01:28:36.263Z,34.37
2019-01-15T01:29:45.232Z,34.17
2019-01-15T01:30:54.930Z,34.37
2019-01-15T01:32:03.859Z,34.27
2019-01-15T01:33:13.301Z,34.46
2019-01-15T01:34:23.015Z,34.37
2019-01-15T01:35:32.224Z,34.37
2019-01-15T01:36:41.161Z,34.37
2019-01-15T01:37:50.355Z,34.37
2019-01-15T01:38:59.525Z,34.46
2019-01-15T01:40:08.977Z,34.27
2019-01-15T01:41:18.164Z,34.17
2019-01-15T01:42:31.931Z,34.17
2019-01-15T01:43:41.120Z,34.17
2019-01-15T01:44:50.308Z,34.17
2019-01-15T01:45:59.759Z,34.08
2019-01-15T01:47:09.184Z,34.17
2019-01-15T01:48:18.364Z,34.17
2019-01-15T01:49:27.539Z,34.08
2019-01-15T01:50:36.975Z,34.17
2019-01-15T01:51:46.162Z,34.08
2019-01-15T01:52:55.114Z,34.08
2019-01-15T01:54:04.541Z,34.08
2019-01-15T01:55:14.244Z,34.17
2019-01-15T01:56:24.011Z,34.17
2019-01-15T01:57:33.473Z,34.17
2019-01-15T01:58:42.914Z,34.37
2019-01-15T01:59:52.864Z,34.27
2019-01-15T02:01:02.080Z,34.17
2019-01-15T02:02:11.289Z,34.27
2019-01-15T02:03:20.710Z,34.17
2019-01-15T02:04:29.395Z,34.27
2019-01-15T02:05:39.121Z,34.27
2019-01-15T02:06:48.348Z,34.17
2019-01-15T02:07:57.795Z,34.37
2019-01-15T02:09:06.980Z,34.27
2019-01-15T02:10:16.171Z,34.37
2019-01-15T02:11:25.101Z,34.37
2019-01-15T02:12:39.374Z,34.37
2019-01-15T02:13:49.071Z,34.37
2019-01-15T02:14:58.048Z,33.79
2019-01-15T02:16:07.250Z,34.37
2019-01-15T02:17:17.198Z,33.79
2019-01-15T02:18:26.375Z,33.89
2019-01-15T02:19:35.581Z,33.98
2019-01-15T02:20:45.264Z,33.89
2019-01-15T02:21:54.214Z,34.37
2019-01-15T02:23:03.453Z,34.37
2019-01-15T02:24:12.389Z,34.37
2019-01-15T02:25:21.819Z,34.27
2019-01-15T02:26:30.992Z,33.98
2019-01-15T02:27:40.679Z,33.89
2019-01-15T02:28:50.162Z,33.98
2019-01-15T02:29:59.116Z,33.98
2019-01-15T02:31:08.328Z,33.98
2019-01-15T02:32:17.511Z,33.98
2019-01-15T02:33:27.206Z,33.98
2019-01-15T02:34:36.909Z,33.98
2019-01-15T02:35:46.108Z,34.08
2019-01-15T02:36:55.800Z,34.08
2019-01-15T02:38:04.989Z,34.08
2019-01-15T02:39:13.968Z,34.06
2019-01-15T02:40:23.674Z,33.97
2019-01-15T02:41:33.120Z,33.98
2019-01-15T02:42:48.795Z,33.97
2019-01-15T02:43:58.494Z,34.06
2019-01-15T02:45:08.189Z,33.98
2019-01-15T02:46:17.637Z,33.97
2019-01-15T02:47:27.330Z,34.06
2019-01-15T02:48:37.025Z,33.98
2019-01-15T02:49:46.209Z,34.16
2019-01-15T02:50:55.639Z,33.97
2019-01-15T02:52:05.359Z,34.16
2019-01-15T02:53:15.073Z,33.97
2019-01-15T02:54:24.288Z,33.97
2019-01-15T02:55:33.224Z,34.08
2019-01-15T02:56:42.210Z,34.06
2019-01-15T02:57:51.218Z,33.77
2019-01-15T02:59:00.895Z,33.97
2019-01-15T03:00:10.598Z,33.77
2019-01-15T03:01:20.025Z,33.97
2019-01-15T03:02:29.542Z,34.06
2019-01-15T03:03:38.537Z,33.87
2019-01-15T03:04:47.970Z,33.97
2019-01-15T03:05:56.908Z,33.77
2019-01-15T03:07:06.651Z,33.77
2019-01-15T03:08:15.837Z,33.77
2019-01-15T03:09:25.268Z,33.87
2019-01-15T03:10:34.452Z,33.87
2019-01-15T03:11:43.903Z,33.67
2019-01-15T03:12:58.465Z,33.87
2019-01-15T03:14:07.700Z,33.67
2019-01-15T03:15:17.402Z,33.67
2019-01-15T03:16:26.345Z,33.67
2019-01-15T03:17:36.033Z,33.87
2019-01-15T03:18:45.726Z,33.87
2019-01-15T03:19:54.936Z,33.58
2019-01-15T03:21:04.876Z,33.77
2019-01-15T03:22:14.825Z,33.58
2019-01-15T03:23:24.889Z,33.58
2019-01-15T03:24:34.355Z,33.58
2019-01-15T03:25:43.529Z,33.58
2019-01-15T03:26:52.979Z,33.58
2019-01-15T03:28:02.410Z,33.58
2019-01-15T03:29:12.542Z,33.58
2019-01-15T03:30:22.121Z,33.58
2019-01-15T03:31:32.161Z,33.67
2019-01-15T03:32:41.889Z,33.58
2019-01-15T03:33:51.396Z,33.48
2019-01-15T03:35:00.841Z,33.58
2019-01-15T03:36:10.272Z,33.58
2019-01-15T03:37:20.229Z,33.58
2019-01-15T03:38:29.417Z,33.58
2019-01-15T03:39:38.621Z,33.58
2019-01-15T03:40:48.082Z,33.2
2019-01-15T03:41:57.557Z,33.67
2019-01-15T03:43:07.018Z,33.1
2019-01-15T03:44:16.237Z,33.67
2019-01-15T03:45:25.938Z,33.1
2019-01-15T03:46:35.702Z,33.29
2019-01-15T03:47:45.148Z,33.1
2019-01-15T03:48:54.617Z,33.67
2019-01-15T03:50:03.797Z,33.1
2019-01-15T03:51:13.746Z,33.39
2019-01-15T03:52:22.926Z,33.39
2019-01-15T03:53:32.123Z,33.67
2019-01-15T03:54:41.078Z,33.67
2019-01-15T03:55:50.292Z,33.48
2019-01-15T03:57:00.014Z,33.48
2019-01-15T03:58:09.452Z,33.39
2019-01-15T03:59:18.901Z,33.39
2019-01-15T04:00:28.339Z,33.39
2019-01-15T04:01:37.829Z,33.29
2019-01-15T04:02:47.520Z,33.29
2019-01-15T04:03:57.206Z,33.29
2019-01-15T04:05:06.392Z,33.48
2019-01-15T04:06:15.840Z,33.47
2019-01-15T04:07:25.050Z,33.48
2019-01-15T04:08:34.505Z,33.39
2019-01-15T04:09:43.985Z,33.58
2019-01-15T04:10:53.190Z,33.48
2019-01-15T04:12:02.652Z,33.67
2019-01-15T04:13:13.725Z,33.58
2019-01-15T04:14:24.618Z,33.39
2019-01-15T04:15:34.312Z,33.56
2019-01-15T04:16:43.022Z,33.58
2019-01-15T04:17:52.721Z,33.67
2019-01-15T04:19:01.664Z,33.48
2019-01-15T04:20:11.368Z,33.66
2019-01-15T04:21:21.089Z,33.66
2019-01-15T04:22:30.269Z,33.67
2019-01-15T04:23:39.837Z,33.56
2019-01-15T04:24:49.274Z,33.37
2019-01-15T04:25:58.724Z,33.67
2019-01-15T04:27:07.903Z,33.29
2019-01-15T04:28:17.179Z,33.2
2019-01-15T04:29:26.868Z,33.66
2019-01-15T04:30:36.841Z,33.29
2019-01-15T04:31:46.043Z,33.08
2019-01-15T04:32:55.209Z,33.39
2019-01-15T04:34:04.395Z,33.18
2019-01-15T04:35:13.341Z,33.2
2019-01-15T04:36:22.838Z,33.37
2019-01-15T04:37:32.323Z,33.39
2019-01-15T04:38:42.033Z,33.29
2019-01-15T04:39:51.226Z,33.39
2019-01-15T04:41:00.680Z,33.18
2019-01-15T04:42:09.704Z,33.28
2019-01-15T04:43:22.475Z,33.39
2019-01-15T04:44:31.935Z,33.39
2019-01-15T04:45:40.898Z,33.47
2019-01-15T04:46:50.319Z,33.48
2019-01-15T04:47:59.271Z,33.29
2019-01-15T04:49:08.488Z,33.37
2019-01-15T04:50:17.948Z,33.47
2019-01-15T04:51:26.906Z,33.48
2019-01-15T04:52:36.369Z,33.37
2019-01-15T04:53:45.877Z,33.37
2019-01-15T04:54:55.333Z,33.37
2019-01-15T04:56:04.533Z,33.37
2019-01-15T04:57:13.738Z,33.47
2019-01-15T04:58:22.666Z,33.37
2019-01-15T04:59:32.360Z,33.37
2019-01-15T05:00:41.311Z,33.37
2019-01-15T05:01:50.778Z,33.37
2019-01-15T05:02:59.960Z,33.37
2019-01-15T05:04:09.901Z,33.47
2019-01-15T05:05:18.854Z,33.37
2019-01-15T05:06:27.803Z,33.37
2019-01-15T05:07:36.749Z,33.37
2019-01-15T05:08:46.200Z,33.28
2019-01-15T05:09:55.401Z,33.28
2019-01-15T05:11:04.609Z,33.18
2019-01-15T05:12:14.051Z,33.37
2019-01-15T05:13:29.903Z,33.37
2019-01-15T05:14:39.089Z,33.47
2019-01-15T05:15:48.824Z,33.47
2019-01-15T05:16:58.874Z,33.37
2019-01-15T05:18:08.155Z,33.37
2019-01-15T05:19:17.834Z,33.28
2019-01-15T05:20:26.537Z,33.18
2019-01-15T05:21:35.970Z,33.18
2019-01-15T05:22:45.170Z,33.18
2019-01-15T05:23:54.858Z,33.08
2019-01-15T05:25:04.069Z,32.89
2019-01-15T05:26:13.799Z,32.89
2019-01-15T05:27:23.474Z,32.98
2019-01-15T05:28:32.908Z,32.89
2019-01-15T05:29:42.389Z,32.98
2019-01-15T05:30:51.843Z,32.79
2019-01-15T05:32:01.270Z,33.18
2019-01-15T05:33:10.463Z,33.28
2019-01-15T05:34:20.157Z,32.98
2019-01-15T05:35:29.363Z,33.28
2019-01-15T05:36:38.794Z,33.18
2019-01-15T05:37:48.022Z,33.08
2019-01-15T05:38:57.258Z,33.18
2019-01-15T05:40:06.694Z,33.28
2019-01-15T05:41:16.148Z,33.18
2019-01-15T05:42:25.573Z,33.18
2019-01-15T05:43:38.399Z,33.28
2019-01-15T05:44:47.573Z,33.18
2019-01-15T05:45:57.042Z,33.18
2019-01-15T05:47:06.218Z,33.18
2019-01-15T05:48:15.672Z,33.18
2019-01-15T05:49:24.611Z,33.18
2019-01-15T05:50:34.577Z,33.37
2019-01-15T05:51:43.762Z,33.18
2019-01-15T05:52:52.946Z,33.37
2019-01-15T05:54:02.889Z,33.28
2019-01-15T05:55:12.801Z,33.28
2019-01-15T05:56:22.732Z,33.28
2019-01-15T05:57:32.410Z,33.18
2019-01-15T05:58:41.336Z,33.08
2019-01-15T05:59:51.251Z,33.37
2019-01-15T06:01:00.169Z,33.08
2019-01-15T06:02:09.344Z,33.08
2019-01-15T06:03:18.792Z,32.98
2019-01-15T06:04:27.996Z,32.98
2019-01-15T06:05:37.443Z,33.08
2019-01-15T06:06:46.925Z,32.98
2019-01-15T06:07:56.128Z,32.98
2019-01-15T06:09:05.319Z,32.89
2019-01-15T06:10:14.533Z,32.89
2019-01-15T06:11:23.967Z,32.98
2019-01-15T06:12:33.141Z,32.98
2019-01-15T06:13:45.283Z,33.08
2019-01-15T06:14:53.965Z,33.08
2019-01-15T06:16:03.157Z,33.18
2019-01-15T06:17:12.129Z,33.08
2019-01-15T06:18:20.818Z,32.98
2019-01-15T06:19:29.997Z,32.98
2019-01-15T06:20:39.477Z,32.89
2019-01-15T06:21:49.155Z,32.79
2019-01-15T06:23:00.021Z,32.98
2019-01-15T06:24:09.234Z,32.81
2019-01-15T06:25:18.267Z,32.81
2019-01-15T06:26:28.034Z,32.81
2019-01-15T06:27:37.708Z,32.81
2019-01-15T06:28:47.129Z,32.81
2019-01-15T06:29:56.602Z,32.81
2019-01-15T06:31:06.034Z,32.9
2019-01-15T06:32:15.970Z,32.81
2019-01-15T06:33:25.430Z,32.81
2019-01-15T06:34:34.878Z,32.89
2019-01-15T06:35:44.862Z,32.79
2019-01-15T06:36:54.829Z,32.79
2019-01-15T06:38:03.748Z,32.79
2019-01-15T06:39:13.195Z,32.89
2019-01-15T06:40:22.640Z,32.79
2019-01-15T06:41:32.087Z,32.89
2019-01-15T06:42:41.770Z,32.79
2019-01-15T06:43:52.628Z,32.89
2019-01-15T06:45:01.826Z,32.79
2019-01-15T06:46:11.268Z,32.79
2019-01-15T06:47:20.709Z,32.98
2019-01-15T06:48:30.447Z,32.98
2019-01-15T06:49:39.645Z,32.89
2019-01-15T06:50:49.565Z,33.18
2019-01-15T06:51:59.253Z,32.89
2019-01-15T06:53:08.967Z,33.08
2019-01-15T06:54:18.415Z,32.98
2019-01-15T06:55:27.851Z,32.98
2019-01-15T06:56:37.031Z,32.98
2019-01-15T06:57:46.482Z,33.08
2019-01-15T06:58:55.661Z,32.98
2019-01-15T07:00:05.082Z,33.18
2019-01-15T07:01:14.512Z,32.98
2019-01-15T07:02:23.940Z,33.08
2019-01-15T07:03:33.374Z,33.18
2019-01-15T07:04:46.484Z,32.89
2019-01-15T07:05:55.952Z,32.79
2019-01-15T07:07:05.629Z,32.79
2019-01-15T07:08:14.827Z,32.6
2019-01-15T07:09:24.269Z,32.51
2019-01-15T07:10:34.191Z,32.41
2019-01-15T07:11:43.125Z,32.33
2019-01-15T07:12:52.067Z,31.95
2019-01-15T07:14:01.005Z,32.14
2019-01-15T07:15:09.951Z,31.85
2019-01-15T07:16:18.636Z,31.75
2019-01-15T07:17:28.327Z,31.75
2019-01-15T07:18:37.488Z,31.57
2019-01-15T07:19:46.920Z,31.48
2019-01-15T07:20:57.374Z,31.48
2019-01-15T07:22:06.895Z,31.48
2019-01-15T07:23:15.580Z,31.19
2019-01-15T07:24:25.276Z,31.21
2019-01-15T07:25:35.009Z,31.11
2019-01-15T07:26:43.955Z,31.01
2019-01-15T07:27:52.924Z,31.01
2019-01-15T07:29:01.889Z,30.82
2019-01-15T07:30:11.574Z,30.91
2019-01-15T07:31:20.525Z,30.73
2019-01-15T07:32:29.711Z,30.74
2019-01-15T07:33:39.432Z,30.55
2019-01-15T07:34:48.379Z,30.74
2019-01-15T07:35:57.842Z,30.64
2019-01-15T07:37:07.041Z,30.35
2019-01-15T07:38:16.230Z,30.45
2019-01-15T07:39:25.916Z,30.45
2019-01-15T07:40:35.114Z,30.45
2019-01-15T07:41:44.304Z,30.18
2019-01-15T07:42:53.501Z,29.98
2019-01-15T07:44:06.904Z,30.18
2019-01-15T07:45:15.845Z,30.18
2019-01-15T07:46:25.329Z,30.18
2019-01-15T07:47:35.002Z,29.98
2019-01-15T07:48:44.690Z,30.08
2019-01-15T07:49:54.391Z,30.18
2019-01-15T07:51:04.343Z,30.18
2019-01-15T07:52:13.789Z,30.27
2019-01-15T07:53:24.473Z,30.08
2019-01-15T07:54:34.169Z,30.18
2019-01-15T07:55:43.370Z,30.46
2019-01-15T07:56:52.608Z,30.46
2019-01-15T07:58:02.353Z,30.37
2019-01-15T07:59:11.577Z,30.46
2019-01-15T08:00:21.022Z,30.46
2019-01-15T08:01:30.714Z,30.56
2019-01-15T08:02:40.639Z,30.37
2019-01-15T08:03:50.096Z,30.56
2019-01-15T08:04:59.563Z,30.76
2019-01-15T08:06:08.751Z,30.76
2019-01-15T08:07:17.928Z,30.76
2019-01-15T08:08:26.872Z,30.85
2019-01-15T08:09:36.572Z,30.76
2019-01-15T08:10:45.756Z,30.85
2019-01-15T08:12:01.672Z,31.04
2019-01-15T08:13:11.354Z,30.94
2019-01-15T08:14:20.544Z,30.85
2019-01-15T08:15:29.229Z,30.93
2019-01-15T08:16:38.416Z,31.14
2019-01-15T08:17:47.837Z,31.12
2019-01-15T08:18:57.019Z,30.93
2019-01-15T08:20:06.208Z,31.22
2019-01-15T08:21:15.136Z,31.12
2019-01-15T08:22:24.572Z,31.22
2019-01-15T08:23:34.268Z,31.22
2019-01-15T08:24:43.710Z,31.22
2019-01-15T08:25:52.894Z,31.32
2019-01-15T08:27:02.334Z,31.32
2019-01-15T08:28:12.069Z,31.41
2019-01-15T08:29:21.294Z,31.41
2019-01-15T08:30:30.498Z,31.6
2019-01-15T08:31:40.183Z,31.51
2019-01-15T08:32:49.372Z,31.6
2019-01-15T08:33:58.810Z,31.51
2019-01-15T08:35:08.239Z,31.41
2019-01-15T08:36:17.664Z,31.6
2019-01-15T08:37:27.338Z,31.6
2019-01-15T08:38:36.027Z,31.6
2019-01-15T08:39:45.452Z,31.51
2019-01-15T08:40:55.147Z,31.8
2019-01-15T08:42:04.570Z,31.7
2019-01-15T08:43:14.015Z,31.7
2019-01-15T08:44:23.444Z,31.88
2019-01-15T08:45:32.883Z,31.78
2019-01-15T08:46:41.801Z,31.9
2019-01-15T08:47:52.639Z,31.8
2019-01-15T08:49:01.573Z,31.88
2019-01-15T08:50:10.831Z,32.07
2019-01-15T08:51:20.789Z,32.07
2019-01-15T08:52:30.217Z,32.07
2019-01-15T08:53:39.646Z,31.88
2019-01-15T08:54:48.595Z,31.88
2019-01-15T08:55:57.803Z,31.88
2019-01-15T08:57:07.010Z,31.98
2019-01-15T08:58:16.442Z,32.07
2019-01-15T08:59:25.630Z,32.17
2019-01-15T09:00:35.368Z,32.17
2019-01-15T09:01:44.310Z,32.17
2019-01-15T09:02:54.032Z,31.98
2019-01-15T09:04:03.743Z,31.98
2019-01-15T09:05:13.309Z,32.07
2019-01-15T09:06:22.006Z,31.88
2019-01-15T09:07:31.193Z,32.07
2019-01-15T09:08:40.385Z,31.98
2019-01-15T09:09:49.570Z,31.88
2019-01-15T09:10:58.763Z,31.88
2019-01-15T09:12:08.604Z,31.98
2019-01-15T09:13:17.840Z,31.78
2019-01-15T09:14:29.554Z,31.8
2019-01-15T09:15:39.012Z,31.8
2019-01-15T09:16:48.214Z,31.6
2019-01-15T09:17:57.596Z,31.6
2019-01-15T09:19:06.548Z,31.7
2019-01-15T09:20:15.770Z,31.51
2019-01-15T09:21:25.140Z,31.6
2019-01-15T09:22:34.325Z,31.51
2019-01-15T09:23:44.478Z,31.51
2019-01-15T09:24:53.186Z,31.41
2019-01-15T09:26:02.147Z,31.41
2019-01-15T09:27:11.426Z,31.41
2019-01-15T09:28:20.858Z,31.32
2019-01-15T09:29:30.604Z,31.41
2019-01-15T09:30:40.582Z,31.41
2019-01-15T09:31:50.256Z,31.41
2019-01-15T09:32:59.963Z,31.43
2019-01-15T09:34:09.673Z,31.43
2019-01-15T09:35:19.163Z,31.43
2019-01-15T09:36:28.352Z,31.32
2019-01-15T09:37:37.537Z,31.43
2019-01-15T09:38:46.978Z,31.43
2019-01-15T09:39:56.666Z,31.52
2019-01-15T09:41:06.101Z,31.41
2019-01-15T09:42:15.534Z,31.43
2019-01-15T09:43:24.973Z,31.51
2019-01-15T09:44:36.393Z,31.43
2019-01-15T09:45:46.083Z,31.43
2019-01-15T09:46:55.274Z,31.43
2019-01-15T09:48:04.449Z,31.6
2019-01-15T09:49:13.158Z,31.7
2019-01-15T09:50:22.597Z,31.6
2019-01-15T09:51:32.087Z,31.6
2019-01-15T09:52:41.825Z,31.7
2019-01-15T09:53:51.305Z,31.51
2019-01-15T09:55:01.297Z,31.51
2019-01-15T09:56:10.474Z,31.51
2019-01-15T09:57:19.949Z,31.8
2019-01-15T09:58:29.508Z,31.6
2019-01-15T09:59:38.704Z,31.8
2019-01-15T10:00:47.953Z,31.8
2019-01-15T10:01:57.406Z,31.7
2019-01-15T10:03:06.904Z,31.8
2019-01-15T10:04:16.110Z,31.9
2019-01-15T10:05:25.558Z,31.9
2019-01-15T10:06:34.729Z,31.8
2019-01-15T10:07:43.677Z,31.8
2019-01-15T10:08:52.723Z,32.09
2019-01-15T10:10:01.978Z,31.9
2019-01-15T10:11:11.415Z,31.9
2019-01-15T10:12:20.343Z,31.9
2019-01-15T10:13:29.527Z,31.99
2019-01-15T10:14:43.514Z,32.18
2019-01-15T10:15:52.941Z,31.99
2019-01-15T10:17:02.624Z,32.18
2019-01-15T10:18:12.322Z,31.99
2019-01-15T10:19:21.509Z,32.09
2019-01-15T10:20:30.700Z,32.28
2019-01-15T10:21:39.930Z,32.09
2019-01-15T10:22:49.124Z,32.07
2019-01-15T10:23:58.048Z,32.18
2019-01-15T10:25:06.996Z,32.09
2019-01-15T10:26:16.426Z,32.18
2019-01-15T10:27:25.603Z,32.28
2019-01-15T10:28:35.064Z,32.28
2019-01-15T10:29:44.254Z,32.26
2019-01-15T10:30:53.969Z,32.36
2019-01-15T10:32:02.982Z,32.17
2019-01-15T10:33:11.969Z,32.36
2019-01-15T10:34:20.903Z,32.36
2019-01-15T10:35:30.618Z,32.46
2019-01-15T10:36:39.652Z,32.46
2019-01-15T10:37:49.108Z,32.46
2019-01-15T10:38:58.548Z,32.26
2019-01-15T10:40:08.011Z,32.36
2019-01-15T10:41:17.235Z,32.26
2019-01-15T10:42:25.932Z,32.28
2019-01-15T10:43:34.623Z,32.09
2019-01-15T10:44:50.965Z,32.18
2019-01-15T10:46:00.396Z,32.18
2019-01-15T10:47:09.584Z,31.99
2019-01-15T10:48:19.279Z,31.9
2019-01-15T10:49:28.703Z,32.09
2019-01-15T10:50:37.887Z,32.09
2019-01-15T10:51:47.306Z,31.9
2019-01-15T10:52:56.525Z,31.8
2019-01-15T10:54:05.983Z,31.8
2019-01-15T10:55:14.667Z,31.7
2019-01-15T10:56:23.607Z,31.8
2019-01-15T10:57:32.547Z,31.6
2019-01-15T10:58:41.220Z,31.6
2019-01-15T10:59:49.919Z,31.6
2019-01-15T11:00:59.112Z,31.6
2019-01-15T11:02:08.316Z,31.6
2019-01-15T11:03:17.999Z,31.62
2019-01-15T11:04:27.706Z,31.62
2019-01-15T11:05:36.891Z,31.52
2019-01-15T11:06:46.094Z,31.62
2019-01-15T11:07:55.275Z,31.62
2019-01-15T11:09:04.506Z,31.62
2019-01-15T11:10:13.692Z,31.62
2019-01-15T11:11:23.370Z,31.62
2019-01-15T11:12:33.053Z,31.52
2019-01-15T11:13:42.067Z,31.62
2019-01-15T11:14:58.390Z,31.72
2019-01-15T11:16:07.918Z,31.72
2019-01-15T11:17:17.607Z,31.62
2019-01-15T11:18:27.045Z,31.62
2019-01-15T11:19:36.484Z,31.72
2019-01-15T11:20:46.174Z,31.72
2019-01-15T11:21:55.608Z,31.72
2019-01-15T11:23:04.802Z,31.81
2019-01-15T11:24:14.472Z,31.91
2019-01-15T11:25:24.442Z,31.72
2019-01-15T11:26:33.641Z,31.81
2019-01-15T11:27:42.575Z,31.8
2019-01-15T11:28:51.777Z,31.9
2019-01-15T11:30:01.047Z,31.8
2019-01-15T11:31:09.740Z,32.09
2019-01-15T11:32:18.962Z,31.99
2019-01-15T11:33:27.675Z,31.99
2019-01-15T11:34:36.848Z,31.8
2019-01-15T11:35:46.296Z,31.99
2019-01-15T11:36:55.488Z,31.99
2019-01-15T11:38:04.939Z,32.09
2019-01-15T11:39:14.186Z,32.28
2019-01-15T11:40:23.919Z,31.99
2019-01-15T11:41:33.349Z,32.09
2019-01-15T11:42:42.774Z,32.28
2019-01-15T11:43:51.705Z,32.28
2019-01-15T11:45:05.679Z,32.28
2019-01-15T11:46:15.122Z,32.09
2019-01-15T11:47:24.072Z,32.28
2019-01-15T11:48:33.507Z,32.28
2019-01-15T11:49:42.691Z,32.47
2019-01-15T11:50:51.921Z,32.47
2019-01-15T11:52:01.112Z,32.09
2019-01-15T11:53:10.785Z,32.38
2019-01-15T11:54:19.965Z,32.67
2019-01-15T11:55:29.409Z,32.47
2019-01-15T11:56:38.619Z,32.57
2019-01-15T11:57:48.078Z,32.38
2019-01-15T11:58:57.764Z,32.47
2019-01-15T12:00:07.446Z,32.38
2019-01-15T12:01:16.899Z,32.47
2019-01-15T12:02:26.345Z,32.47
2019-01-15T12:03:35.282Z,32.38
2019-01-15T12:04:44.717Z,32.57
2019-01-15T12:05:54.161Z,32.57
2019-01-15T12:07:03.587Z,32.47
2019-01-15T12:08:13.281Z,32.57
2019-01-15T12:09:22.765Z,32.47
2019-01-15T12:10:32.213Z,32.65
2019-01-15T12:11:41.383Z,32.56
2019-01-15T12:12:50.332Z,32.57
2019-01-15T12:13:59.787Z,32.65
2019-01-15T12:15:13.454Z,32.67
2019-01-15T12:16:22.650Z,32.38
2019-01-15T12:17:31.827Z,32.56
2019-01-15T12:18:40.768Z,32.57
2019-01-15T12:19:49.971Z,32.38
2019-01-15T12:20:59.387Z,32.47
2019-01-15T12:22:09.085Z,32.38
2019-01-15T12:23:18.278Z,32.38
2019-01-15T12:24:28.208Z,32.18
2019-01-15T12:25:37.653Z,32.28
2019-01-15T12:26:47.106Z,32.18
2019-01-15T12:27:56.281Z,32.09
2019-01-15T12:29:05.712Z,32.09
2019-01-15T12:30:16.270Z,31.99
2019-01-15T12:31:26.200Z,31.9
2019-01-15T12:32:35.387Z,32.09
2019-01-15T12:33:44.822Z,32.09
2019-01-15T12:34:53.761Z,32.09
2019-01-15T12:36:03.208Z,31.8
2019-01-15T12:37:12.643Z,31.99
2019-01-15T12:38:21.314Z,31.99
2019-01-15T12:39:30.523Z,31.81
2019-01-15T12:40:39.713Z,31.91
2019-01-15T12:41:49.654Z,31.91
2019-01-15T12:42:59.358Z,31.81
2019-01-15T12:44:08.802Z,31.81
2019-01-15T12:45:20.917Z,31.9
2019-01-15T12:46:30.071Z,31.91
2019-01-15T12:47:39.522Z,32.01
2019-01-15T12:48:48.210Z,31.91
2019-01-15T12:49:57.429Z,32.01
2019-01-15T12:51:06.915Z,31.91
2019-01-15T12:52:16.357Z,31.81
2019-01-15T12:53:25.292Z,31.91
2019-01-15T12:54:34.989Z,31.81
2019-01-15T12:55:44.199Z,32.1
2019-01-15T12:56:53.644Z,32.01
2019-01-15T12:58:03.480Z,32.01
2019-01-15T12:59:12.416Z,32.01
2019-01-15T13:00:21.622Z,32.1
2019-01-15T13:01:31.059Z,31.99
2019-01-15T13:02:40.283Z,31.91
2019-01-15T13:03:49.957Z,32.01
2019-01-15T13:04:59.678Z,32.2
2019-01-15T13:06:09.384Z,32.1
2019-01-15T13:07:19.064Z,32.01
2019-01-15T13:08:27.986Z,32.18
2019-01-15T13:09:37.415Z,32.18
2019-01-15T13:10:47.092Z,32.18
2019-01-15T13:11:56.295Z,32.18
2019-01-15T13:13:06.228Z,32.18
2019-01-15T13:14:15.407Z,32.28
2019-01-15T13:15:34.593Z,32.47
2019-01-15T13:16:44.036Z,32.09
2019-01-15T13:17:53.440Z,32.38
2019-01-15T13:19:02.638Z,32.18
2019-01-15T13:20:12.583Z,32.47
2019-01-15T13:21:21.796Z,32.38
2019-01-15T13:22:30.747Z,32.38
2019-01-15T13:23:40.419Z,32.57
2019-01-15T13:24:49.866Z,32.47
2019-01-15T13:25:58.802Z,32.38
2019-01-15T13:27:08.540Z,32.57
2019-01-15T13:28:17.727Z,32.57
2019-01-15T13:29:26.666Z,32.57
2019-01-15T13:30:35.594Z,32.67
2019-01-15T13:31:45.041Z,32.57
2019-01-15T13:32:54.332Z,32.57
2019-01-15T13:34:03.539Z,32.57
2019-01-15T13:35:13.226Z,32.67
2019-01-15T13:36:22.681Z,32.67
2019-01-15T13:37:32.382Z,32.47
2019-01-15T13:38:41.568Z,32.57
2019-01-15T13:39:51.008Z,32.76
2019-01-15T13:41:00.439Z,32.86
2019-01-15T13:42:10.132Z,32.67
2019-01-15T13:43:19.323Z,32.67
2019-01-15T13:44:28.830Z,32.76
2019-01-15T13:45:44.250Z,32.67
2019-01-15T13:46:53.684Z,33.05
2019-01-15T13:48:03.359Z,32.95
2019-01-15T13:49:12.561Z,32.94
2019-01-15T13:50:21.995Z,32.47
2019-01-15T13:51:31.191Z,32.47
2019-01-15T13:52:40.673Z,32.67
2019-01-15T13:53:50.130Z,32.86
2019-01-15T13:54:59.315Z,32.57
2019-01-15T13:56:08.769Z,32.47
2019-01-15T13:57:18.208Z,32.57
2019-01-15T13:58:27.428Z,32.67
2019-01-15T13:59:36.637Z,32.38
2019-01-15T14:00:47.011Z,32.38
2019-01-15T14:01:56.267Z,32.57
2019-01-15T14:03:05.705Z,32.47
2019-01-15T14:04:15.146Z,32.47
2019-01-15T14:05:24.352Z,32.38
2019-01-15T14:06:33.598Z,32.18
2019-01-15T14:07:43.315Z,32.38
2019-01-15T14:08:52.750Z,32.28
2019-01-15T14:10:01.931Z,32.38
2019-01-15T14:11:11.122Z,32.47
2019-01-15T14:12:20.550Z,32.28
2019-01-15T14:13:30.262Z,32.28
2019-01-15T14:14:38.945Z,32.38
2019-01-15T14:15:51.493Z,32.09
2019-01-15T14:17:00.924Z,32.38
2019-01-15T14:18:10.370Z,32.18
2019-01-15T14:19:19.808Z,32.18
2019-01-15T14:20:29.008Z,32.38
2019-01-15T14:21:38.724Z,32.47
2019-01-15T14:22:47.956Z,32.57
2019-01-15T14:23:57.128Z,32.38
2019-01-15T14:25:06.331Z,32.38
2019-01-15T14:26:15.288Z,32.38
2019-01-15T14:27:24.736Z,32.28
2019-01-15T14:28:33.678Z,32.38
2019-01-15T14:29:43.115Z,32.28
2019-01-15T14:30:52.297Z,32.47
2019-01-15T14:32:01.232Z,32.38
2019-01-15T14:33:11.186Z,32.38
2019-01-15T14:34:19.913Z,32.38
2019-01-15T14:35:29.335Z,32.38
2019-01-15T14:36:38.795Z,32.47
2019-01-15T14:37:48.480Z,32.38
2019-01-15T14:38:57.651Z,32.57
2019-01-15T14:40:07.345Z,32.47
2019-01-15T14:41:16.766Z,32.57
2019-01-15T14:42:25.935Z,32.38
2019-01-15T14:43:35.119Z,32.57
2019-01-15T14:44:44.088Z,32.47
2019-01-15T14:46:00.385Z,32.67
2019-01-15T14:47:09.985Z,32.67
2019-01-15T14:48:18.931Z,32.76
2019-01-15T14:49:28.999Z,32.57
2019-01-15T14:50:38.688Z,32.57
2019-01-15T14:51:48.602Z,32.67
2019-01-15T14:52:58.304Z,32.57
2019-01-15T14:54:07.255Z,32.57
2019-01-15T14:55:17.222Z,32.57
2019-01-15T14:56:27.187Z,32.57
2019-01-15T14:57:37.137Z,32.57